Estación Temperatura (°C) Hum
rel
(%)
Precip
(mm)
Viento (km/h) Actual.
Act Mín Máx Act Dir Máx
Vega Baja del Segura
Albatera Albatera C.U. / Centro 10,4 9,4 12,7 57 1,5 0 N 21 2022-01-23 20:00:00
Almoradí Almoradí C.U. / Centro 10,0 9,2 11,9 84 2,7 0 ENE 8 2022-01-23 20:05:00
Almoradí Almoradí C.U. / Los Gomares 9,7 8,4 11,9 87 3,8 0 S 15 2022-01-23 20:09:00
Benejúzar Benejúzar C.U. / Centro 9,8 9,1 11,6 84 5,0 0 N 13 2022-01-23 20:00:00
Benejúzar Benejúzar C.U. / Las Monjas 9,3 8,7 11,6 87 5,1 1 E 13 2022-01-23 20:10:00
Bigastro Bigastro C.U. / Lo Chusco 10,0 8,7 11,6 82 4,5 4 E 18 2022-01-23 20:09:00
Callosa de Segura Callosa C.U. / Centro 10,9 9,3 12,7 68 3,9 4 N 11 2022-01-23 20:10:00
Catral Catral C.U. / Centro 10,1 9,3 12,6 61 2,7 0 N 11 2022-01-23 20:05:00
Cox Cox C.U. / Centro 10,8 9,7 12,2 61 2,2 0 N 18 2022-01-23 20:00:00
Cox Cox C.U. / El Jasminao 10,7 9,7 12,4 75 3,0 0 N 19 2022-01-23 20:00:00
Daya Vieja Daya Vieja 8,1 8,1 12,8 90 6,6 0 NE 13 2022-01-23 20:10:00
Dolores Dolores C.U. / Centro 10,1 9,1 12,1 83 3,3 2 ENE 15 2022-01-23 20:10:00
Formentera del Segura Los Palacios 9,2 8,8 11,9 89 6,2 2 NE 18 2022-01-23 20:12:00
Guardamar del Segura Guardamar del Segura C.U. / Centro 9,9 9,3 11,6 85 4,6 2 NNE 15 2022-01-23 20:04:00
Jacarilla El Copo 9,7 8,6 11,4 86 3,0 3 SE 16 2022-01-23 20:00:00
Jacarilla Jacarilla C.U. / Centro 10,1 8,9 11,9 85 2,5 0 NE 15 2022-01-23 20:00:00
Orihuela Arneva Barranco 10,6 8,5 12,3 77 3,8 3 ENE 13 2022-01-23 20:11:00
Orihuela Arneva Centro 10,7 8,6 12,1 78 3,8 8 SE 31 2022-01-23 20:10:00
Orihuela Desamparados 9,7 8,2 12,2 88 3,0 0 NNE 17 2022-01-23 20:10:00
Orihuela Hurchillo CEIP Manuel Riquelme 9,8 8,6 11,8 82 4,2 4 ESE 17 2022-01-23 20:11:00
Orihuela La Campaneta 9,7 8,8 11,9 85 2,5 0 N 16 2022-01-23 20:00:00
Orihuela La Murada 8,7 8,4 13,6 91 1,2 1 SE 18 2022-01-23 20:11:00
Orihuela La Regia 10,0 9,4 15,2 87 0,2 1 SSE 15 2022-01-23 20:10:00
Orihuela Las Norias 10,0 10,0 12,7 61 2,7 0 S 20 2022-01-23 20:10:00
Orihuela Lo Cabello 9,2 8,1 12,3 90 3,6 2 SSE 11 2022-01-23 20:12:00
Orihuela Lo Capitán 9,1 7,7 11,2 86 5,5 0 OSO 11 2022-01-23 20:10:00
Orihuela Orihuela C.U. / Severo Ochoa 10,2 8,6 12,2 82 3,8 2 E 13 2022-01-23 20:10:00
Orihuela Playa Flamenca 10,1 9,4 13,0 85 0,5 4 N 17 2022-01-23 20:10:00
Orihuela Raiguero de Bonanza 10,9 8,7 12,2 77 3,0 3 ONO 11 2022-01-23 20:04:00
Orihuela San Bartolomé 9,3 8,7 11,8 89 4,2 0 NNO 17 2022-01-23 20:10:00
Orihuela Urb. La Pinada Golf 9,0 8,6 14,4 87 0,7 2 SSE 8 2022-01-23 20:12:00
Orihuela Zenia Boulevard 10,2 9,4 12,9 84 0,0 5 NNO 24 2022-01-23 20:00:00
Rafal Rafal C.U / Centro 10,3 9,0 11,8 81 0,0 2 NE 11 2022-01-23 20:10:00
Redován Redován C.U. / Centro 11,5 9,2 11,7 71 2,5 2 N 16 2022-01-23 20:10:00
Rojales Ciudad Quesada 9,8 9,2 11,4 84 1,7 8 N 23 2022-01-23 20:10:00
Rojales Rojales C.U. / Centro 10,4 10,4 13,7 84 0,0 0 N -999 2022-01-23 20:10:00
San Fulgencio San Fulgencio C.U. / C. Reina Sofía 9,4 8,9 11,8 86 5,5 5 N 23 2022-01-23 20:00:00
San Fulgencio San Fulgencio C.U. / Centro 9,7 8,9 11,7 88 5,5 3 N 22 2022-01-23 20:11:00
San Fulgencio Urb. La Marina 9,6 8,7 10,9 84 5,0 8 N 19 2022-01-23 20:00:00
San Miguel de Salinas Lo Meca 9,4 8,3 11,8 80 3,4 3 NO 19 2022-01-23 19:57:00
Santa Pola Playa Lisa 9,8 9,3 11,9 87 2,5 3 NNO 24 2022-01-23 20:10:00
Torrevieja El Chaparral 10,0 9,5 12,0 82 1,0 10 NNE 21 2022-01-23 20:11:00
Pilar de la Horadada P. de la Horadada C.U. / Lo Monte 9,7 9,3 13,3 88 0,0 9 N 31 2022-01-23 20:10:00
Zonas Adyacentes
Granada Granada C.U. / La Alhambra 7,5 2,4 11,8 75 0,0 0 NNE 18 2022-01-23 20:10:00
Abanilla Abanilla C.U. / Centro 8,8 8,2 12,7 83 0,7 0 SSE 24 2022-01-23 20:09:00
Abarán El Rulete 9,0 6,6 11,9 83 2,0 3 SE 28 2022-01-23 20:10:00
Molina de Segura La Espada 8,7 7,5 11,5 65 1,6 0 ESE 19 2022-01-23 20:03:00
Murcia Cañadas de San Pedro 8,9 7,9 12,6 88 6,0 0 SE 16 2022-01-23 20:02:00
Murcia Santo Ángel 10,1 8,4 12,3 86 4,8 2 E 9 2022-01-23 20:10:00
San Javier San Javier C.U. / Centro 10,1 10,1 14,2 85 0,5 0 O 15 2022-01-23 20:10:00
San Pedro del Pinatar San Pedro C.U. / Centro 11,1 10,0 12,8 62 0,0 16 NNE 16 2022-01-23 20:04:00
Santomera La Almazara 9,1 7,9 11,9 84 1,4 0 NE 10 2022-01-23 20:03:00
Santomera Santomera C.U. / Centro 10,3 8,4 12,4 82 2,2 0 ESE 13 2022-01-23 20:00:00